Nearby METAR Reports

 

EGMC - Southend-On-Sea, United Kingdom
Distance from station: NE 10km
Updated: 20/09/2017 03:50
Clear
Clear
 Wind from WSW
Wind: WSW 6 mph , 9 km/h
Temperature: 9°C
Wind Chill: 7°C
Dew Point: 8°C
Humidity: 94%
Barometer: 1020 hPa
Summary: Clear
Visibility: greater than 7 miles , 10 km
2017/09/20 02:50 EGMC 200250Z 24005KT CAVOK 09/08 Q1020
EGLC - London City Airp, United Kingdom
Distance from station: W 37km
Updated: 20/09/2017 04:20
Partly cloudy
Partly cloudy
 Wind from SW
Wind: SW 5 mph , 7 km/h
Temperature: 11°C
Dew Point: 10°C
Humidity: 94%
Barometer: 1020 hPa
Clouds: Partly cloudy
Visibility: 6 miles , 10 km
Cloud details: Partly cloudy 1311 m
2017/09/20 03:20 EGLC 200320Z AUTO 23004KT 9999 SCT043 11/10 Q1020
EGKB - Biggin Hill, United Kingdom
Distance from station: WSW 45km
Updated: 19/09/2017 22:20
NOT Current
Clear
Clear
 Wind from SSW
Wind: SSW 9 mph , 15 km/h
Temperature: 11°C
Dew Point: 9°C
Humidity: 88%
Barometer: 1022 hPa
Summary: Clear
Visibility: greater than 7 miles , 10 km
2017/09/19 21:20 EGKB 192120Z 20008KT CAVOK 11/09 Q1022
 
EGSS - Stansted Airport, United Kingdom
Distance from station: NNW 48km
Updated: 20/09/2017 04:20
Mist, Partly cloudy
Mist, Partly cloudy
 Wind from WSW
Wind: WSW 1 mph , 2 km/h
Temperature: 7°C
Dew Point: 7°C
Humidity: 100%
Barometer: 1020 hPa
Summary: Mist
Clouds: Partly cloudy
Visibility: 1 mile , 1 km
2017/09/20 03:20 EGSS 200320Z 24001KT 1200 R22/P1500 BR NSC 07/07 Q1020
EGKK - London/Gatwick A, United Kingdom
Distance from station: SW 67km
Updated: 20/09/2017 04:20
Clear
Clear
 Wind from calm
Wind: Calm
Temperature: 9°C
Dew Point: 8°C
Humidity: 94%
Barometer: 1020 hPa
Summary: Clear
Visibility: greater than 7 miles , 10 km
2017/09/20 03:20 EGKK 200320Z 00000KT CAVOK 09/08 Q1020
EGMD - Lydd Airport, United Kingdom
Distance from station: SSE 67km
Updated: 20/09/2017 04:20
Clear
Clear
 Wind from varies
Wind: varies 3 mph , 6 km/h
Temperature: 8°C
Dew Point: 8°C
Humidity: 100%
Barometer: 1021 hPa
Clouds: Clear
Visibility: 5 miles , 8 km
2017/09/20 03:20 EGMD 200320Z AUTO VRB03KT 8000 NCD 08/08 Q1021
 
EGWU - Northolt Raf, United Kingdom
Distance from station: W 69km
Updated: 20/09/2017 03:50
Mostly cloudy
Mostly cloudy
 Wind from WNW
Wind: WNW 2 mph , 4 km/h
Temperature: 7°C
Dew Point: 6°C
Humidity: 93%
Barometer: 1020 hPa
Clouds: Mostly cloudy
Visibility: 6 miles , 10 km
Cloud details: Mostly cloudy 1524 m
2017/09/20 02:50 EGWU 200250Z AUTO 29002KT 9999 // BKN050/// 07/06 Q1020
EGLL - London/Heathrow, United Kingdom
Distance from station: W 72km
Updated: 20/09/2017 04:20
Partly cloudy
Partly cloudy
 Wind from SW
Wind: SW 2 mph , 4 km/h
Temperature: 11°C
Dew Point: 10°C
Humidity: 94%
Barometer: 1020 hPa
Clouds: Partly cloudy
Visibility: 6 miles , 10 km
Cloud details: Partly cloudy 1219 m
2017/09/20 03:20 EGLL 200320Z 22002KT 9999 SCT040 11/10 Q1020
EGUW - Wattisham Raf, United Kingdom
Distance from station: NNE 72km
Updated: 20/09/2017 03:50
Haze, Clear
Haze, Clear
 Wind from WSW
Wind: WSW 6 mph , 9 km/h
Temperature: 7°C
Wind Chill: 6°C
Dew Point: 6°C
Humidity: 93%
Barometer: 1019 hPa
Summary: Haze
Clouds: Clear
Visibility: 6 miles , 9 km
2017/09/20 02:50 EGUW 200250Z AUTO 24005KT 9000 HZ NCD 07/06 Q1019
 
EGGW - Luton Airport, United Kingdom
Distance from station: WNW 76km
Updated: 20/09/2017 04:20
Mostly cloudy
Mostly cloudy
 Wind from S
Wind: S 5 mph , 7 km/h
Temperature: 8°C
Wind Chill: 7°C
Dew Point: 8°C
Humidity: 100%
Barometer: 1020 hPa
Clouds: Mostly cloudy
Visibility: 6 miles , 9 km
Cloud details: Mostly cloudy 945 m
Mostly cloudy 1311 m
2017/09/20 03:20 EGGW 200320Z AUTO 19004KT 9000 BKN031 BKN043 08/08 Q1020
EGSC - Cambridge, United Kingdom
Distance from station: NNW 81km
Updated: 19/09/2017 17:50
NOT Current
Few Clouds
Few Clouds
 Wind from WSW
Wind: WSW 8 mph , 13 km/h
Temperature: 15°C
Dew Point: 7°C
Humidity: 59%
Barometer: 1021 hPa
Clouds: Few Clouds
Visibility: 6 miles , 10 km
Cloud details: Few Clouds 1372 m
2017/09/19 16:50 EGSC 191650Z 25007KT 9999 FEW045 15/07 Q1021